Time;durP1;ratioP1;P1;durP2;ratioP2;P2;SDS_P1;SDS_P2;PMS_P1;PMS_P2;Temp;Humidity;BMP_temperature;BMP_pressure;BME280_temperature;BME280_humidity;BME280_pressure;Samples;Min_cycle;Max_cycle;Signal;HPM_P1;HPM_P2
2023/04/29 00:02:16;;;;;;;38.30;14.13;;;;;;;11.72;100.00;100727.31;6275239;28;20045;-79
2023/04/29 00:05:18;;;;;;;36.95;15.43;;;;;;;11.77;100.00;100721.78;6275401;28;20357;-80
2023/04/29 00:08:20;;;;;;;40.22;14.50;;;;;;;11.69;100.00;100727.47;6275135;28;20052;-79
2023/04/29 00:11:21;;;;;;;34.30;12.98;;;;;;;11.69;100.00;100723.06;6275863;28;20680;-79
2023/04/29 00:14:24;;;;;;;39.95;14.32;;;;;;;11.68;100.00;100734.53;6275137;28;20045;-79
2023/04/29 00:17:26;;;;;;;34.35;14.55;;;;;;;11.64;100.00;100733.00;6275262;28;20051;-79
2023/04/29 00:20:27;;;;;;;33.47;12.65;;;;;;;11.68;100.00;100738.97;6275075;28;20056;-79
2023/04/29 00:23:28;;;;;;;32.53;13.80;;;;;;;11.59;100.00;100739.50;6275188;28;20345;-81
2023/04/29 00:26:30;;;;;;;28.45;13.40;;;;;;;11.58;100.00;100740.41;6275366;28;20049;-80
2023/04/29 00:29:33;;;;;;;31.55;14.30;;;;;;;11.59;100.00;100745.59;6274789;28;20044;-79
2023/04/29 00:32:35;;;;;;;31.92;13.77;;;;;;;11.53;100.00;100751.19;6273799;28;20060;-79
2023/04/29 00:35:36;;;;;;;36.45;15.85;;;;;;;11.54;100.00;100749.44;6274871;28;20469;-79
2023/04/29 00:38:37;;;;;;;27.27;13.52;;;;;;;11.43;100.00;100755.28;6275019;28;20438;-79
2023/04/29 00:41:39;;;;;;;31.63;16.05;;;;;;;11.35;100.00;100758.34;6275107;28;20049;-79
2023/04/29 00:44:42;;;;;;;27.30;13.93;;;;;;;11.26;100.00;100772.00;6274672;28;20441;-80
2023/04/29 00:47:43;;;;;;;30.90;15.32;;;;;;;11.16;100.00;100762.94;6274873;28;20049;-78
2023/04/29 00:50:44;;;;;;;27.77;13.93;;;;;;;11.05;100.00;100771.44;6274894;28;20049;-79
2023/04/29 00:53:46;;;;;;;27.42;14.32;;;;;;;10.95;100.00;100775.50;6274857;28;20045;-79
2023/04/29 00:56:49;;;;;;;26.85;14.70;;;;;;;11.03;100.00;100790.84;6274800;28;20045;-79
2023/04/29 00:59:52;;;;;;;28.42;14.57;;;;;;;10.94;100.00;100784.31;6274853;28;20049;-79
2023/04/29 01:02:55;;;;;;;32.30;14.05;;;;;;;10.87;100.00;100796.94;6274048;28;20130;-79
2023/04/29 01:06:08;;;;;;;32.20;15.43;;;;;;;10.86;100.00;100803.16;6275114;28;20060;-79
2023/04/29 01:09:23;;;;;;;30.63;14.38;;;;;;;10.82;100.00;100812.13;6270524;28;20056;-79
2023/04/29 01:12:33;;;;;;;30.33;13.93;;;;;;;10.72;100.00;100808.28;6272432;28;20052;-79
2023/04/29 01:15:45;;;;;;;35.58;15.68;;;;;;;10.78;100.00;100820.25;6274365;28;20098;-79
2023/04/29 01:18:49;;;;;;;38.38;13.57;;;;;;;10.81;100.00;100830.59;6274074;28;20079;-79
2023/04/29 01:21:51;;;;;;;40.90;15.55;;;;;;;10.79;100.00;100832.47;6274683;28;20053;-79
2023/04/29 01:24:53;;;;;;;26.25;14.30;;;;;;;10.74;100.00;100834.50;6274462;28;20052;-79
2023/04/29 01:28:02;;;;;;;28.45;13.85;;;;;;;10.64;100.00;100839.38;6274112;28;20080;-79
2023/04/29 01:31:08;;;;;;;25.95;12.93;;;;;;;10.60;100.00;100843.94;6268431;28;20045;-79
2023/04/29 01:34:14;;;;;;;24.10;12.95;;;;;;;10.52;100.00;100846.09;6273839;28;20045;-79
2023/04/29 01:37:22;;;;;;;23.15;11.52;;;;;;;10.45;100.00;100839.50;6274368;28;20048;-80
2023/04/29 01:40:30;;;;;;;24.45;13.43;;;;;;;10.45;100.00;100849.16;6274244;28;20045;-79
2023/04/29 01:43:33;;;;;;;26.25;13.32;;;;;;;10.50;100.00;100852.38;6274366;28;20041;-79
2023/04/29 01:46:36;;;;;;;24.55;13.88;;;;;;;10.43;100.00;100851.00;6277160;28;20477;-79
2023/04/29 01:49:37;;;;;;;22.73;11.77;;;;;;;10.45;100.00;100862.28;6278582;28;20045;-79
2023/04/29 01:52:38;;;;;;;24.88;12.60;;;;;;;10.49;100.00;100862.06;6278558;28;20051;-79
2023/04/29 01:55:42;;;;;;;27.67;15.10;;;;;;;10.52;100.00;100872.38;6278606;28;20052;-79
2023/04/29 01:58:44;;;;;;;27.85;14.88;;;;;;;10.56;100.00;100879.19;6278037;28;20053;-80
2023/04/29 02:01:45;;;;;;;27.92;14.55;;;;;;;10.47;100.00;100877.03;6278258;28;20045;-79
2023/04/29 02:04:47;;;;;;;26.27;14.35;;;;;;;10.55;100.00;100884.53;6276700;28;20045;-79
2023/04/29 02:07:48;;;;;;;25.30;14.23;;;;;;;10.47;100.00;100884.06;6278174;28;20048;-79
2023/04/29 02:10:56;;;;;;;31.15;15.23;;;;;;;10.27;100.00;100888.56;6278339;28;20052;-79
2023/04/29 02:13:57;;;;;;;34.72;16.35;;;;;;;10.26;100.00;100902.59;6277719;28;20070;-78
2023/04/29 02:16:58;;;;;;;28.02;15.50;;;;;;;10.29;100.00;100902.44;6277914;28;20076;-79
2023/04/29 02:20:00;;;;;;;30.75;15.75;;;;;;;10.26;100.00;100904.38;6277816;28;20049;-79
2023/04/29 02:23:01;;;;;;;39.83;17.50;;;;;;;10.26;100.00;100918.34;6277658;28;20060;-79
2023/04/29 02:26:05;;;;;;;41.33;19.05;;;;;;;10.28;100.00;100920.91;6277680;28;20071;-79
2023/04/29 02:29:13;;;;;;;48.28;19.63;;;;;;;10.19;100.00;100922.19;6277481;28;20037;-79
2023/04/29 02:32:14;;;;;;;42.53;18.98;;;;;;;10.28;100.00;100920.91;6274508;28;20053;-79
2023/04/29 02:35:16;;;;;;;45.05;19.13;;;;;;;10.23;100.00;100926.38;6275345;28;20405;-78
2023/04/29 02:38:17;;;;;;;49.75;19.55;;;;;;;10.16;100.00;100920.53;6277151;28;20052;-78
2023/04/29 02:41:20;;;;;;;47.05;20.92;;;;;;;10.11;100.00;100929.56;6274579;28;20052;-79
2023/04/29 02:44:21;;;;;;;48.78;19.27;;;;;;;10.24;100.00;100935.09;6277084;28;20345;-79
2023/04/29 02:47:23;;;;;;;47.63;22.20;;;;;;;10.19;100.00;100937.09;6277382;28;20452;-79
2023/04/29 02:50:25;;;;;;;54.08;22.65;;;;;;;10.24;100.00;100948.22;6277218;28;20053;-79
2023/04/29 02:53:26;;;;;;;49.75;21.70;;;;;;;10.27;100.00;100943.72;6277056;28;20318;-79
2023/04/29 02:56:29;;;;;;;43.50;20.83;;;;;;;10.33;100.00;100950.44;6276725;28;20255;-79
2023/04/29 02:59:30;;;;;;;52.50;22.45;;;;;;;10.26;100.00;100947.25;6276914;28;20128;-79
2023/04/29 03:02:31;;;;;;;50.63;21.33;;;;;;;10.24;100.00;100953.47;6276461;28;20048;-79
2023/04/29 03:05:33;;;;;;;50.20;23.33;;;;;;;10.23;100.00;100957.03;6276585;28;20064;-79
2023/04/29 03:08:35;;;;;;;53.80;21.85;;;;;;;10.11;100.00;100959.31;6276804;28;20072;-78
2023/04/29 03:11:37;;;;;;;52.22;22.95;;;;;;;10.12;100.00;100961.00;6274990;28;20045;-79
2023/04/29 03:14:39;;;;;;;48.38;19.55;;;;;;;10.21;100.00;100966.75;6276486;28;20044;-78
2023/04/29 03:17:40;;;;;;;55.47;21.85;;;;;;;10.10;100.00;100973.38;6276246;28;20106;-79
2023/04/29 03:20:42;;;;;;;53.80;21.85;;;;;;;10.05;100.00;100974.53;6268650;28;20056;-79
2023/04/29 03:23:43;;;;;;;48.83;21.88;;;;;;;10.07;100.00;100970.88;6276345;28;20429;-79
2023/04/29 03:26:46;;;;;;;51.67;21.75;;;;;;;10.14;100.00;100974.09;6276100;28;20056;-79
2023/04/29 03:29:48;;;;;;;55.78;22.60;;;;;;;10.14;100.00;100979.34;6273246;28;20048;-79
2023/04/29 03:32:49;;;;;;;55.13;22.65;;;;;;;10.18;100.00;100991.41;6258673;28;20044;-79
2023/04/29 03:35:50;;;;;;;41.03;18.52;;;;;;;10.10;100.00;100986.50;6259395;28;20044;-79
2023/04/29 03:38:52;;;;;;;52.00;22.23;;;;;;;10.02;100.00;100988.63;6257606;28;20080;-79
2023/04/29 03:41:55;;;;;;;40.83;18.83;;;;;;;9.98;100.00;100994.09;6257692;28;20044;-79
2023/04/29 03:44:56;;;;;;;41.03;17.58;;;;;;;9.80;100.00;100996.66;6257009;28;20040;-79
2023/04/29 03:47:57;;;;;;;34.20;15.07;;;;;;;9.80;100.00;100991.41;6259163;28;20041;-79
2023/04/29 03:50:59;;;;;;;33.90;16.00;;;;;;;9.74;100.00;100999.56;6257610;28;20045;-79
2023/04/29 03:54:00;;;;;;;31.00;16.20;;;;;;;9.80;100.00;101003.69;6256995;28;20163;-79
2023/04/29 03:57:03;;;;;;;37.53;17.27;;;;;;;9.74;100.00;101010.06;6257714;28;20041;-79
2023/04/29 04:00:06;;;;;;;28.08;14.60;;;;;;;9.70;100.00;101013.75;6254068;28;20052;-79
2023/04/29 04:03:07;;;;;;;35.80;15.73;;;;;;;9.70;100.00;101020.78;6259874;28;20041;-79
2023/04/29 04:06:09;;;;;;;35.00;16.55;;;;;;;9.71;100.00;101030.34;6257974;28;20118;-79
2023/04/29 04:09:10;;;;;;;27.15;13.73;;;;;;;9.66;100.00;101031.41;6256600;28;20536;-79
2023/04/29 04:12:13;;;;;;;28.42;14.10;;;;;;;9.67;100.00;101037.50;6257571;28;20561;-79
2023/04/29 04:15:15;;;;;;;29.10;14.63;;;;;;;9.59;100.00;101037.84;6257707;28;20171;-79
2023/04/29 04:18:17;;;;;;;32.33;14.25;;;;;;;9.49;100.00;101043.56;6257390;28;20486;-79
2023/04/29 04:21:18;;;;;;;25.33;12.43;;;;;;;9.58;100.00;101051.03;6258476;28;20056;-79
2023/04/29 04:24:20;;;;;;;32.10;14.98;;;;;;;9.55;100.00;101051.19;6257446;28;20036;-79
2023/04/29 04:27:22;;;;;;;28.70;12.50;;;;;;;9.55;100.00;101052.03;6256569;28;20041;-79
2023/04/29 04:30:24;;;;;;;24.90;12.63;;;;;;;9.50;100.00;101061.03;6264851;28;20052;-80
2023/04/29 04:33:26;;;;;;;26.35;12.38;;;;;;;9.54;100.00;101063.44;6273183;28;20048;-79
2023/04/29 04:36:27;;;;;;;25.25;12.50;;;;;;;9.56;100.00;101068.63;6274839;28;20341;-79
2023/04/29 04:39:29;;;;;;;24.55;13.20;;;;;;;9.54;100.00;101067.84;6275251;28;20045;-79
2023/04/29 04:42:31;;;;;;;29.10;12.68;;;;;;;9.59;100.00;101074.59;6274953;28;20336;-79
2023/04/29 04:45:33;;;;;;;27.60;11.88;;;;;;;9.55;100.00;101078.25;6274686;28;20314;-79
2023/04/29 04:48:34;;;;;;;22.85;12.13;;;;;;;9.60;100.00;101084.16;6274851;28;20076;-79
2023/04/29 04:51:35;;;;;;;24.35;12.00;;;;;;;9.67;100.00;101087.34;6274931;28;20437;-79
2023/04/29 04:54:37;;;;;;;26.75;11.57;;;;;;;9.62;100.00;101103.28;6274697;28;20045;-79
2023/04/29 04:57:39;;;;;;;26.10;11.52;;;;;;;9.55;100.00;101104.50;6274668;28;20041;-79
2023/04/29 05:00:44;;;;;;;24.67;11.35;;;;;;;9.55;100.00;101108.91;6274432;28;20048;-79
2023/04/29 05:03:45;;;;;;;21.67;10.68;;;;;;;9.55;100.00;101116.78;6274924;28;20151;-79
2023/04/29 05:06:46;;;;;;;25.10;11.52;;;;;;;9.59;100.00;101126.22;6274719;28;20053;-79
2023/04/29 05:09:48;;;;;;;25.52;11.95;;;;;;;9.52;100.00;101125.63;6272483;28;20055;-79
2023/04/29 05:12:50;;;;;;;24.80;10.93;;;;;;;9.43;100.00;101126.00;6274686;28;20053;-79
2023/04/29 05:15:52;;;;;;;19.27;11.30;;;;;;;9.53;100.00;101135.19;6274602;28;20049;-79
2023/04/29 05:18:53;;;;;;;23.42;11.38;;;;;;;9.57;100.00;101136.75;6275442;28;20057;-79
2023/04/29 05:21:55;;;;;;;20.98;10.75;;;;;;;9.51;100.00;101133.56;6279167;28;20053;-79
2023/04/29 05:25:01;;;;;;;21.98;10.63;;;;;;;9.49;100.00;101138.84;6279022;28;20052;-79
2023/04/29 05:28:04;;;;;;;24.17;10.73;;;;;;;9.46;100.00;101149.50;6279100;28;20091;-78
2023/04/29 05:31:06;;;;;;;23.83;10.82;;;;;;;9.43;100.00;101149.63;6278241;28;20378;-79
2023/04/29 05:34:07;;;;;;;27.95;11.75;;;;;;;9.37;100.00;101152.50;6278520;28;20051;-78
2023/04/29 05:37:08;;;;;;;19.92;10.23;;;;;;;9.40;100.00;101150.63;6278198;28;20057;-78
2023/04/29 05:40:10;;;;;;;17.88;9.88;;;;;;;9.38;100.00;101160.31;6273124;28;20350;-79
2023/04/29 05:43:13;;;;;;;19.83;9.52;;;;;;;9.37;100.00;101169.09;6278534;28;20041;-79
2023/04/29 05:46:15;;;;;;;19.13;10.32;;;;;;;9.43;100.00;101177.63;6278732;28;20433;-78
2023/04/29 05:49:16;;;;;;;20.48;9.55;;;;;;;9.38;100.00;101175.19;6278588;28;20049;-79
2023/04/29 05:52:18;;;;;;;22.67;10.05;;;;;;;9.44;100.00;101184.56;6278266;28;20072;-79
2023/04/29 05:55:19;;;;;;;19.38;10.55;;;;;;;9.45;100.00;101183.63;6277666;28;20356;-79
2023/04/29 05:58:22;;;;;;;19.80;11.20;;;;;;;9.48;100.00;101184.38;6277593;28;20353;-78
2023/04/29 06:01:24;;;;;;;25.15;10.88;;;;;;;9.48;100.00;101189.63;6277615;28;20063;-79
2023/04/29 06:04:25;;;;;;;18.55;10.63;;;;;;;9.47;100.00;101194.94;6277744;28;20425;-78
2023/04/29 06:07:27;;;;;;;13.95;8.70;;;;;;;9.52;100.00;101199.06;6278001;28;20052;-79
2023/04/29 06:10:28;;;;;;;21.33;10.27;;;;;;;9.53;100.00;101202.56;6278123;28;20516;-79
2023/04/29 06:13:32;;;;;;;16.35;9.63;;;;;;;9.46;100.00;101212.47;6278056;28;20453;-79
2023/04/29 06:16:33;;;;;;;18.02;9.50;;;;;;;9.49;100.00;101222.81;6277525;28;20048;-78
2023/04/29 06:19:35;;;;;;;19.85;9.77;;;;;;;9.57;100.00;101225.97;6277043;28;20049;-79
2023/04/29 06:22:36;;;;;;;17.67;9.25;;;;;;;9.54;100.00;101239.25;6278193;28;20242;-79
2023/04/29 06:25:37;;;;;;;18.58;9.07;;;;;;;9.57;100.00;101236.47;6277334;28;20127;-79
2023/04/29 06:28:40;;;;;;;20.40;9.60;;;;;;;9.64;100.00;101240.56;6277679;28;20045;-79
2023/04/29 06:31:41;;;;;;;18.63;10.13;;;;;;;9.65;100.00;101236.16;6268509;28;20087;-79
2023/04/29 06:34:44;;;;;;;20.95;9.93;;;;;;;9.79;100.00;101239.06;6277799;28;20053;-79
2023/04/29 06:37:46;;;;;;;22.40;9.35;;;;;;;9.78;100.00;101244.38;6277038;28;20053;-78
2023/04/29 06:40:47;;;;;;;20.58;9.98;;;;;;;9.81;100.00;101254.72;6277649;28;20045;-79
2023/04/29 06:43:50;;;;;;;20.48;9.23;;;;;;;9.76;100.00;101254.06;6276807;28;20071;-79
2023/04/29 06:46:52;;;;;;;16.73;9.32;;;;;;;9.87;100.00;101260.59;6276775;28;20041;-79
2023/04/29 06:49:53;;;;;;;18.83;9.15;;;;;;;9.88;100.00;101262.28;6276809;28;20056;-79
2023/04/29 06:52:54;;;;;;;16.45;8.43;;;;;;;10.04;100.00;101269.53;6276761;28;20056;-78
2023/04/29 06:55:56;;;;;;;17.88;8.65;;;;;;;10.13;100.00;101277.03;6276654;28;20060;-78
2023/04/29 06:58:58;;;;;;;19.33;9.35;;;;;;;10.28;100.00;101272.91;6276215;28;20357;-79
2023/04/29 07:02:00;;;;;;;17.27;8.40;;;;;;;10.32;100.00;101285.84;6276339;28;20045;-79
2023/04/29 07:05:01;;;;;;;16.52;8.82;;;;;;;10.39;100.00;101286.41;6276105;28;20049;-78
2023/04/29 07:08:03;;;;;;;22.65;9.32;;;;;;;10.48;100.00;101293.88;6276332;28;20461;-79
2023/04/29 07:11:04;;;;;;;16.85;9.20;;;;;;;10.39;100.00;101292.50;6274162;28;20365;-79
2023/04/29 07:14:07;;;;;;;17.55;9.43;;;;;;;10.27;100.00;101314.09;6275995;28;20045;-79
2023/04/29 07:17:09;;;;;;;17.63;10.43;;;;;;;10.30;100.00;101302.56;6276104;28;20045;-79
2023/04/29 07:20:11;;;;;;;22.15;9.23;;;;;;;10.37;100.00;101315.38;6276123;28;20449;-79
2023/04/29 07:23:13;;;;;;;20.15;10.05;;;;;;;10.48;100.00;101314.06;6276095;28;20048;-78
2023/04/29 07:26:16;;;;;;;18.25;9.35;;;;;;;10.47;100.00;101320.25;6275747;28;20464;-79
2023/04/29 07:29:19;;;;;;;19.20;9.48;;;;;;;10.51;100.00;101330.56;6275421;28;20060;-79
2023/04/29 07:32:21;;;;;;;21.55;10.98;;;;;;;10.34;100.00;101333.91;6276010;28;20072;-80
2023/04/29 07:35:22;;;;;;;23.10;10.35;;;;;;;10.44;100.00;101336.97;6275866;28;20528;-79
2023/04/29 07:38:24;;;;;;;18.52;9.85;;;;;;;10.47;100.00;101334.22;6275321;28;20049;-79
2023/04/29 07:41:25;;;;;;;24.95;9.93;;;;;;;10.48;100.00;101343.81;6276060;28;20055;-79
2023/04/29 07:44:28;;;;;;;19.90;10.20;;;;;;;10.51;100.00;101337.59;6275009;28;20048;-79
2023/04/29 07:47:29;;;;;;;19.25;10.65;;;;;;;10.57;100.00;101339.94;6275803;28;20127;-79
2023/04/29 07:50:34;;;;;;;22.67;10.07;;;;;;;10.72;100.00;101341.91;6275419;28;20447;-79
2023/04/29 07:53:35;;;;;;;22.48;10.65;;;;;;;10.80;100.00;101352.06;6275752;28;20048;-78
2023/04/29 07:56:36;;;;;;;19.65;10.40;;;;;;;10.96;100.00;101360.13;6275862;28;20045;-79
2023/04/29 07:59:39;;;;;;;19.65;9.73;;;;;;;10.97;100.00;101367.09;6275042;28;20056;-79
2023/04/29 08:02:41;;;;;;;18.65;9.88;;;;;;;10.98;100.00;101372.28;6275158;28;20047;-79
2023/04/29 08:05:43;;;;;;;23.80;10.48;;;;;;;10.97;100.00;101380.25;6267598;28;20174;-80
2023/04/29 08:08:45;;;;;;;19.77;9.90;;;;;;;11.00;100.00;101369.59;6275162;28;20171;-80
2023/04/29 08:11:46;;;;;;;21.98;9.57;;;;;;;11.07;100.00;101379.75;6275331;28;20045;-79
2023/04/29 08:14:49;;;;;;;18.15;10.15;;;;;;;11.11;100.00;101385.72;6275420;28;20063;-79
2023/04/29 08:17:50;;;;;;;20.30;11.27;;;;;;;11.20;100.00;101395.84;6269371;28;20326;-79
2023/04/29 08:20:52;;;;;;;22.25;11.18;;;;;;;11.17;100.00;101396.84;6275415;28;20045;-78
2023/04/29 08:23:54;;;;;;;26.38;12.38;;;;;;;11.20;100.00;101398.47;6274701;28;20057;-78
2023/04/29 08:26:55;;;;;;;32.83;13.57;;;;;;;11.25;100.00;101404.38;6274844;28;20499;-78
2023/04/29 08:29:58;;;;;;;26.70;13.30;;;;;;;11.24;100.00;101404.44;6275054;28;20045;-78
2023/04/29 08:33:00;;;;;;;24.88;12.98;;;;;;;11.24;100.00;101407.94;6275084;28;20053;-79
2023/04/29 08:36:02;;;;;;;25.48;12.88;;;;;;;11.30;100.00;101410.28;6275347;28;20045;-78
2023/04/29 08:39:04;;;;;;;25.30;13.25;;;;;;;11.31;100.00;101422.53;6274741;28;20396;-78
2023/04/29 08:42:08;;;;;;;24.25;12.98;;;;;;;11.34;100.00;101429.41;6274799;28;20349;-81
2023/04/29 08:45:13;;;;;;;28.13;13.13;;;;;;;11.28;100.00;101433.19;6274764;28;20045;-80
2023/04/29 08:48:16;;;;;;;25.88;12.60;;;;;;;11.39;100.00;101435.31;6274917;28;20041;-79
2023/04/29 08:51:17;;;;;;;29.30;14.18;;;;;;;11.34;100.00;101435.53;6274921;28;20353;-79
2023/04/29 08:54:18;;;;;;;25.85;14.40;;;;;;;11.35;100.00;101442.50;6276341;28;20441;-79
2023/04/29 08:57:21;;;;;;;23.95;13.75;;;;;;;11.42;100.00;101443.06;6279695;28;20041;-78
2023/04/29 09:00:24;;;;;;;29.40;14.30;;;;;;;11.42;100.00;101445.72;6279765;28;20053;-78
2023/04/29 09:03:29;;;;;;;24.73;13.20;;;;;;;11.44;100.00;101449.13;6280056;28;20045;-78
2023/04/29 09:06:32;;;;;;;24.73;12.48;;;;;;;11.48;100.00;101452.47;6279252;28;20048;-80
2023/04/29 09:09:34;;;;;;;23.85;12.20;;;;;;;11.55;100.00;101451.28;6279777;28;20175;-82
2023/04/29 09:12:35;;;;;;;21.10;12.57;;;;;;;11.54;100.00;101452.19;6270813;28;20345;-80
2023/04/29 09:15:40;;;;;;;23.55;12.40;;;;;;;11.59;100.00;101456.31;6279188;28;20124;-80
2023/04/29 09:18:43;;;;;;;22.10;9.90;;;;;;;11.63;100.00;101451.78;6279166;28;20390;-80
2023/04/29 09:21:54;;;;;;;20.60;10.18;;;;;;;11.75;100.00;101459.09;6271412;28;20052;-81
2023/04/29 09:25:11;;;;;;;20.20;9.60;;;;;;;11.81;100.00;101466.72;6276997;28;20053;-84
2023/04/29 09:28:16;;;;;;;14.77;7.57;;;;;;;11.92;100.00;101453.06;6278409;28;20063;-82
2023/04/29 09:31:27;;;;;;;15.25;8.00;;;;;;;12.20;100.00;101457.84;6276491;28;20037;-83
2023/04/29 09:34:34;;;;;;;16.33;7.82;;;;;;;12.29;100.00;101456.56;6276498;28;20052;-84
2023/04/29 09:37:35;;;;;;;11.80;6.03;;;;;;;12.35;100.00;101467.66;6273834;28;20051;-83
2023/04/29 09:40:38;;;;;;;13.73;5.43;;;;;;;12.34;100.00;101462.44;6277989;28;20127;-88
2023/04/29 09:43:41;;;;;;;8.75;5.03;;;;;;;12.28;100.00;101468.03;6279356;28;20045;-83
2023/04/29 09:46:44;;;;;;;9.68;4.88;;;;;;;12.46;100.00;101464.50;6270838;28;20128;-83
2023/04/29 09:49:45;;;;;;;8.07;4.30;;;;;;;12.61;100.00;101465.50;6278465;28;20060;-83
2023/04/29 09:52:47;;;;;;;9.40;5.15;;;;;;;12.51;100.00;101474.81;6279038;28;20098;-84
2023/04/29 09:55:59;;;;;;;8.32;4.68;;;;;;;12.68;100.00;101466.91;6278338;28;20151;-83
2023/04/29 09:59:08;;;;;;;6.85;4.13;;;;;;;12.68;100.00;101470.41;6278597;28;20045;-83
2023/04/29 10:02:15;;;;;;;6.82;4.68;;;;;;;12.73;100.00;101470.16;6278351;28;20563;-82
2023/04/29 10:05:16;;;;;;;10.90;5.82;;;;;;;12.74;100.00;101474.50;6276174;28;20429;-82
2023/04/29 10:08:18;;;;;;;13.02;5.05;;;;;;;12.87;100.00;101472.94;6278219;28;20045;-80
2023/04/29 10:11:20;;;;;;;11.63;5.07;;;;;;;13.04;100.00;101474.72;6278533;28;20049;-82
2023/04/29 10:14:23;;;;;;;10.52;4.97;;;;;;;13.13;100.00;101478.66;6278042;28;20471;-83
2023/04/29 10:17:36;;;;;;;8.45;4.35;;;;;;;13.10;100.00;101477.03;6278346;28;20051;-83
2023/04/29 10:20:41;;;;;;;8.77;4.68;;;;;;;13.04;100.00;101487.91;6277897;28;20172;-83
2023/04/29 10:23:43;;;;;;;8.68;4.53;;;;;;;12.98;100.00;101484.72;6269946;28;20045;-83
2023/04/29 10:26:47;;;;;;;12.05;4.82;;;;;;;12.95;100.00;101483.13;6277625;28;20345;-83
2023/04/29 10:29:51;;;;;;;17.42;4.82;;;;;;;13.04;100.00;101480.00;6277470;28;20056;-82
2023/04/29 10:32:56;;;;;;;14.07;5.15;;;;;;;13.25;100.00;101485.09;6277515;28;20053;-83
2023/04/29 10:35:59;;;;;;;7.88;4.40;;;;;;;13.29;100.00;101494.56;6277808;28;20187;-82
2023/04/29 10:39:04;;;;;;;10.23;4.75;;;;;;;13.31;100.00;101487.44;6277892;28;20131;-83
2023/04/29 10:42:20;;;;;;;8.77;5.05;;;;;;;13.11;100.00;101499.84;6277803;28;20155;-83
2023/04/29 10:45:23;;;;;;;8.65;3.97;;;;;;;12.88;100.00;101501.03;6277272;28;20045;-85
2023/04/29 10:48:26;;;;;;;9.75;4.03;;;;;;;12.91;100.00;101494.75;6277417;28;20044;-82
2023/04/29 10:51:32;;;;;;;8.55;4.63;;;;;;;12.90;100.00;101499.19;6277375;28;20430;-83
2023/04/29 10:54:33;;;;;;;8.25;4.15;;;;;;;12.93;100.00;101490.22;6277567;28;20138;-84
2023/04/29 10:57:35;;;;;;;5.72;3.63;;;;;;;13.00;100.00;101488.16;6276826;28;20365;-82
2023/04/29 11:00:37;;;;;;;7.78;3.78;;;;;;;13.20;100.00;101485.31;6276924;28;20041;-83
2023/04/29 11:03:53;;;;;;;10.82;3.58;;;;;;;13.40;100.00;101481.69;6277064;28;20045;-85
2023/04/29 11:06:56;;;;;;;6.10;3.10;;;;;;;13.60;100.00;101486.72;6270544;28;20049;-82
2023/04/29 11:09:58;;;;;;;9.13;3.50;;;;;;;13.76;100.00;101493.81;6276897;28;20052;-83
2023/04/29 11:13:20;;;;;;;8.35;3.90;;;;;;;13.90;100.00;101489.50;6273782;28;20053;-83
2023/04/29 11:16:27;;;;;;;7.38;3.10;;;;;;;13.91;100.00;101490.34;6276527;28;20044;-82
2023/04/29 11:19:33;;;;;;;6.18;3.45;;;;;;;14.09;100.00;101491.09;6270005;28;20041;-83
2023/04/29 11:22:35;;;;;;;7.93;4.30;;;;;;;14.23;100.00;101488.53;6276715;28;20045;-83
2023/04/29 11:25:37;;;;;;;5.80;3.95;;;;;;;14.28;100.00;101496.19;6276271;28;20049;-85
2023/04/29 11:28:42;;;;;;;6.05;3.60;;;;;;;14.22;100.00;101494.75;6276086;28;20361;-82
2023/04/29 11:31:43;;;;;;;13.77;3.90;;;;;;;14.41;100.00;101495.41;6268327;28;20132;-84
2023/04/29 11:34:46;;;;;;;4.53;3.25;;;;;;;14.65;100.00;101502.91;6276321;28;20048;-83
2023/04/29 11:37:47;;;;;;;12.38;3.70;;;;;;;14.52;100.00;101496.63;6275920;28;20045;-83
2023/04/29 11:40:49;;;;;;;14.32;4.38;;;;;;;14.39;100.00;101501.72;6276079;28;20045;-82
2023/04/29 11:43:56;;;;;;;7.38;3.10;;;;;;;14.14;100.00;101499.63;6276039;28;20147;-82
2023/04/29 11:47:02;;;;;;;6.75;4.10;;;;;;;14.11;100.00;101498.00;6275849;28;20135;-82
2023/04/29 11:50:07;;;;;;;6.40;3.33;;;;;;;14.43;100.00;101503.25;6275924;28;20049;-83
2023/04/29 11:53:09;;;;;;;6.43;3.50;;;;;;;14.76;100.00;101500.50;6276377;28;20075;-81
2023/04/29 11:56:11;;;;;;;5.78;3.45;;;;;;;14.68;100.00;101508.03;6263803;28;20191;-81
2023/04/29 11:59:12;;;;;;;5.70;3.72;;;;;;;14.38;100.00;101506.16;6264873;28;20045;-81
2023/04/29 12:02:14;;;;;;;6.68;3.33;;;;;;;14.31;100.00;101503.97;6263027;28;20570;-81
2023/04/29 12:05:17;;;;;;;7.72;3.45;;;;;;;14.25;100.00;101512.22;6274152;28;20452;-81
2023/04/29 12:08:19;;;;;;;8.25;3.88;;;;;;;14.12;100.00;101512.06;6281486;28;20128;-81
2023/04/29 12:11:23;;;;;;;5.95;3.72;;;;;;;14.00;100.00;101532.09;6270000;28;20047;-81
2023/04/29 12:14:25;;;;;;;8.55;4.20;;;;;;;13.86;100.00;101524.09;6275199;28;20052;-81
2023/04/29 12:17:26;;;;;;;8.57;4.10;;;;;;;13.82;100.00;101525.19;6267061;28;20193;-80
2023/04/29 12:20:29;;;;;;;5.45;3.60;;;;;;;13.85;100.00;101525.00;6273497;28;20045;-80
2023/04/29 12:23:31;;;;;;;7.25;4.25;;;;;;;13.90;100.00;101530.91;6275758;28;20049;-79
2023/04/29 12:26:32;;;;;;;7.40;4.35;;;;;;;13.76;100.00;101528.13;6268557;28;20048;-79
2023/04/29 12:29:35;;;;;;;11.88;4.60;;;;;;;13.62;100.00;101540.31;6271007;28;20130;-82
2023/04/29 12:32:37;;;;;;;9.32;4.32;;;;;;;13.64;100.00;101541.09;6274476;28;20068;-80
2023/04/29 12:35:39;;;;;;;9.07;4.13;;;;;;;13.55;100.00;101540.72;6271572;28;20056;-79
2023/04/29 12:38:42;;;;;;;10.23;4.28;;;;;;;13.58;100.00;101536.16;6274342;28;20041;-79
2023/04/29 12:41:45;;;;;;;8.23;4.10;;;;;;;13.67;100.00;101540.94;6259371;28;20060;-79
2023/04/29 12:44:47;;;;;;;12.60;4.72;;;;;;;13.70;100.00;101542.53;6275116;28;20049;-79
2023/04/29 12:47:50;;;;;;;9.60;4.32;;;;;;;13.69;100.00;101538.19;6274257;28;20055;-79
2023/04/29 12:50:57;;;;;;;6.15;4.05;;;;;;;13.85;100.00;101525.00;6274771;28;20440;-79
2023/04/29 12:53:59;;;;;;;5.53;3.42;;;;;;;13.90;100.00;101539.69;6274637;28;20052;-81
2023/04/29 12:57:01;;;;;;;5.97;3.53;;;;;;;13.96;100.00;101543.78;6274415;28;20056;-80
2023/04/29 13:00:03;;;;;;;7.43;3.38;;;;;;;13.90;100.00;101536.19;6274663;28;20056;-80
2023/04/29 13:03:05;;;;;;;7.28;3.10;;;;;;;14.00;100.00;101540.03;6274242;28;20053;-79
2023/04/29 13:06:08;;;;;;;4.78;2.80;;;;;;;14.08;100.00;101536.94;6274815;28;20052;-79
2023/04/29 13:09:10;;;;;;;5.93;2.75;;;;;;;14.03;98.24;101536.34;6274186;28;21018;-81
2023/04/29 13:12:12;;;;;;;3.72;2.35;;;;;;;14.15;100.00;101540.97;6274470;28;20072;-81
2023/04/29 13:15:14;;;;;;;7.72;2.47;;;;;;;14.32;100.00;101532.97;6274242;28;20044;-80
2023/04/29 13:18:15;;;;;;;6.28;2.53;;;;;;;14.35;96.53;101534.56;6274352;28;20041;-82
2023/04/29 13:21:18;;;;;;;5.53;3.13;;;;;;;14.76;100.00;101541.94;6274591;28;20044;-81
2023/04/29 13:24:19;;;;;;;5.00;2.80;;;;;;;14.53;96.33;101532.69;6273519;28;20059;-82
2023/04/29 13:27:21;;;;;;;6.63;2.58;;;;;;;14.42;100.00;101531.50;6273551;28;20742;-80
2023/04/29 13:30:22;;;;;;;6.75;3.30;;;;;;;14.32;100.00;101537.41;6273571;28;20356;-80
2023/04/29 13:33:24;;;;;;;4.80;2.67;;;;;;;14.35;100.00;101543.38;6274123;28;20056;-81
2023/04/29 13:36:29;;;;;;;6.45;2.38;;;;;;;14.30;98.10;101550.69;6272488;28;20041;-83
2023/04/29 13:39:30;;;;;;;7.90;3.00;;;;;;;14.20;98.36;101546.84;6273983;28;20356;-80
2023/04/29 13:42:31;;;;;;;4.47;2.40;;;;;;;14.24;98.55;101547.53;6272577;28;20554;-80
2023/04/29 13:45:33;;;;;;;4.32;2.58;;;;;;;14.71;100.00;101561.59;6278633;28;20052;-81
2023/04/29 13:48:35;;;;;;;7.53;2.20;;;;;;;15.00;93.71;101564.34;6269656;28;20127;-80
2023/04/29 13:51:37;;;;;;;4.53;2.53;;;;;;;14.75;89.12;101551.69;6278213;28;20055;-80